createdAt,value
2018-05-08T00:00:17.146Z,44.8
2018-05-08T00:01:17.174Z,45.1
2018-05-08T00:02:16.453Z,44.5
2018-05-08T00:03:16.715Z,44.5
2018-05-08T00:04:16.979Z,44.4
2018-05-08T00:05:17.243Z,44.2
2018-05-08T00:06:16.508Z,44.5
2018-05-08T00:07:16.766Z,44.7
2018-05-08T00:08:17.021Z,44.3
2018-05-08T00:09:17.285Z,44.6
2018-05-08T00:10:16.557Z,44.8
2018-05-08T00:11:16.610Z,45.1
2018-05-08T00:12:16.872Z,44.8
2018-05-08T00:13:17.137Z,44.7
2018-05-08T00:14:16.687Z,44.8
2018-05-08T00:15:16.963Z,44.8
2018-05-08T00:16:17.227Z,44.9
2018-05-08T00:17:16.492Z,45.0
2018-05-08T00:18:16.753Z,44.9
2018-05-08T00:19:17.003Z,44.9
2018-05-08T00:20:17.268Z,44.3
2018-05-08T00:21:17.307Z,44.6
2018-05-08T00:22:16.569Z,44.6
2018-05-08T00:23:16.832Z,44.8
2018-05-08T00:24:17.085Z,44.8
2018-05-08T00:25:16.351Z,45.0
2018-05-08T00:26:16.611Z,44.2
2018-05-08T00:27:16.873Z,44.5
2018-05-08T00:28:17.127Z,44.7
2018-05-08T00:29:16.396Z,44.8
2018-05-08T00:30:16.710Z,44.5
2018-05-08T00:31:16.716Z,45.0
2018-05-08T00:32:16.975Z,45.0
2018-05-08T00:33:17.235Z,44.9
2018-05-08T00:34:16.492Z,45.0
2018-05-08T00:35:16.756Z,44.7
2018-05-08T00:36:17.026Z,45.2
2018-05-08T00:37:17.291Z,45.2
2018-05-08T00:38:16.561Z,45.4
2018-05-08T00:39:16.819Z,45.3
2018-05-08T00:40:17.088Z,45.3
2018-05-08T00:41:17.135Z,45.2
2018-05-08T00:42:16.394Z,45.5
2018-05-08T00:43:16.650Z,45.5
2018-05-08T00:44:16.919Z,44.7
2018-05-08T00:45:17.188Z,45.0
2018-05-08T00:46:16.443Z,45.3
2018-05-08T00:47:16.709Z,45.5
2018-05-08T00:48:16.970Z,45.8
2018-05-08T00:49:17.256Z,45.5
2018-05-08T00:50:16.521Z,45.0
2018-05-08T00:51:16.560Z,45.5
2018-05-08T00:52:16.814Z,45.8
2018-05-08T00:53:17.070Z,45.5
2018-05-08T00:54:16.334Z,45.5
2018-05-08T00:55:16.617Z,45.8
2018-05-08T00:56:16.882Z,45.8
2018-05-08T00:57:17.146Z,46.2
2018-05-08T00:58:16.427Z,46.0
2018-05-08T00:59:16.693Z,46.0
2018-05-08T01:00:16.966Z,46.2
2018-05-08T01:01:17.004Z,46.4
2018-05-08T01:02:17.272Z,46.2
2018-05-08T01:03:16.535Z,46.6
2018-05-08T01:04:16.797Z,46.0
2018-05-08T01:05:17.142Z,46.4
2018-05-08T01:06:16.408Z,46.2
2018-05-08T01:07:16.669Z,46.3
2018-05-08T01:08:16.933Z,46.5
2018-05-08T01:09:17.202Z,46.4
2018-05-08T01:10:16.489Z,46.9
2018-05-08T01:11:16.518Z,47.1
2018-05-08T01:12:16.769Z,47.5
2018-05-08T01:13:17.031Z,47.2
2018-05-08T01:14:17.294Z,47.0
2018-05-08T01:15:16.569Z,47.0
2018-05-08T01:16:16.833Z,47.1
2018-05-08T01:17:17.106Z,46.8
2018-05-08T01:18:16.368Z,46.6
2018-05-08T01:19:16.624Z,46.8
2018-05-08T01:20:16.903Z,46.8
2018-05-08T01:21:16.938Z,47.1
2018-05-08T01:22:17.205Z,47.1
2018-05-08T01:23:16.465Z,47.1
2018-05-08T01:24:16.737Z,47.2
2018-05-08T01:25:17.010Z,47.4
2018-05-08T01:26:17.577Z,47.2
2018-05-08T01:27:16.837Z,47.2
2018-05-08T01:28:17.097Z,47.4
2018-05-08T01:29:16.359Z,47.5
2018-05-08T01:30:16.633Z,47.5
2018-05-08T01:31:16.688Z,47.6
2018-05-08T01:32:16.955Z,47.6
2018-05-08T01:33:17.219Z,47.8
2018-05-08T01:34:16.492Z,47.7
2018-05-08T01:35:16.763Z,47.3
2018-05-08T01:36:17.030Z,47.6
2018-05-08T01:37:17.294Z,47.7
2018-05-08T01:38:16.557Z,47.8
2018-05-08T01:39:16.822Z,48.0
2018-05-08T01:40:17.094Z,47.8
2018-05-08T01:41:17.114Z,47.8
2018-05-08T01:42:16.382Z,47.8
2018-05-08T01:43:16.713Z,47.8
2018-05-08T01:44:16.983Z,48.0
2018-05-08T01:45:17.628Z,48.1
2018-05-08T01:46:16.885Z,48.3
2018-05-08T01:47:17.141Z,48.5
2018-05-08T01:48:16.408Z,48.5
2018-05-08T01:49:16.671Z,48.6
2018-05-08T01:50:16.939Z,48.6
2018-05-08T01:51:16.981Z,48.2
2018-05-08T01:52:17.254Z,48.7
2018-05-08T01:53:16.507Z,49.0
2018-05-08T01:54:16.780Z,48.5
2018-05-08T01:55:17.049Z,48.5
2018-05-08T01:56:17.641Z,48.7
2018-05-08T01:57:16.905Z,48.8
2018-05-08T01:58:17.163Z,49.0
2018-05-08T01:59:16.424Z,49.2
2018-05-08T02:00:16.687Z,49.6
2018-05-08T02:01:16.737Z,49.9
2018-05-08T02:02:17.262Z,49.9
2018-05-08T02:03:16.521Z,50.2
2018-05-08T02:04:16.790Z,50.6
2018-05-08T02:05:17.049Z,50.5
2018-05-08T02:06:17.308Z,50.7
2018-05-08T02:07:16.573Z,51.0
2018-05-08T02:08:16.827Z,51.2
2018-05-08T02:09:17.085Z,52.4
2018-05-08T02:10:16.376Z,52.8
2018-05-08T02:11:16.395Z,52.5
2018-05-08T02:12:16.656Z,52.7
2018-05-08T02:13:17.226Z,52.3
2018-05-08T02:14:16.485Z,52.2
2018-05-08T02:15:16.761Z,52.2
2018-05-08T02:16:17.025Z,52.3
2018-05-08T02:17:17.287Z,52.3
2018-05-08T02:18:16.564Z,52.2
2018-05-08T02:19:16.830Z,51.8
2018-05-08T02:20:17.237Z,51.0
2018-05-08T02:21:17.153Z,51.5
2018-05-08T02:22:16.410Z,51.3
2018-05-08T02:23:16.681Z,51.9
2018-05-08T02:24:16.947Z,51.9
2018-05-08T02:25:17.208Z,53.7
2018-05-08T02:26:16.466Z,54.1
2018-05-08T02:27:16.726Z,53.1
2018-05-08T02:28:16.995Z,53.0
2018-05-08T02:29:17.268Z,53.2
2018-05-08T02:30:16.542Z,52.9
2018-05-08T02:31:16.581Z,52.8
2018-05-08T02:32:16.844Z,53.0
2018-05-08T02:33:17.113Z,53.2
2018-05-08T02:34:16.383Z,53.1
2018-05-08T02:35:16.646Z,53.0
2018-05-08T02:36:16.925Z,53.0
2018-05-08T02:37:17.201Z,53.2
2018-05-08T02:38:16.467Z,53.1
2018-05-08T02:39:16.729Z,53.1
2018-05-08T02:40:16.993Z,53.5
2018-05-08T02:41:17.037Z,53.5
2018-05-08T02:42:17.303Z,53.6
2018-05-08T02:43:16.565Z,53.2
2018-05-08T02:44:16.831Z,53.3
2018-05-08T02:45:17.099Z,53.4
2018-05-08T02:46:16.372Z,53.5
2018-05-08T02:47:16.634Z,53.9
2018-05-08T02:48:16.894Z,53.8
2018-05-08T02:49:17.166Z,54.0
2018-05-08T02:50:16.437Z,53.9
2018-05-08T02:51:16.477Z,54.1
2018-05-08T02:52:16.740Z,54.0
2018-05-08T02:53:17.011Z,54.1
2018-05-08T02:54:17.281Z,54.3
2018-05-08T02:55:16.537Z,54.4
2018-05-08T02:56:16.799Z,54.5
2018-05-08T02:57:17.066Z,54.6
2018-05-08T02:58:16.341Z,54.5
2018-05-08T02:59:16.607Z,54.2
2018-05-08T03:00:16.873Z,54.4
2018-05-08T03:01:16.924Z,55.5
2018-05-08T03:02:17.183Z,56.0
2018-05-08T03:03:16.453Z,56.5
2018-05-08T03:04:16.830Z,56.0
2018-05-08T03:05:17.138Z,57.0
2018-05-08T03:06:16.410Z,56.5
2018-05-08T03:07:16.666Z,57.1
2018-05-08T03:08:16.931Z,56.6
2018-05-08T03:09:17.196Z,57.0
2018-05-08T03:10:16.464Z,56.8
2018-05-08T03:11:16.490Z,56.4
2018-05-08T03:12:16.750Z,56.3
2018-05-08T03:13:17.012Z,56.4
2018-05-08T03:14:17.273Z,56.9
2018-05-08T03:15:16.537Z,56.5
2018-05-08T03:16:16.801Z,56.5
2018-05-08T03:17:17.071Z,56.8
2018-05-08T03:18:16.334Z,56.9
2018-05-08T03:19:16.593Z,57.1
2018-05-08T03:20:16.860Z,57.3
2018-05-08T03:21:16.913Z,57.2
2018-05-08T03:22:17.265Z,57.5
2018-05-08T03:23:16.535Z,57.4
2018-05-08T03:24:16.799Z,57.4
2018-05-08T03:25:17.065Z,57.1
2018-05-08T03:26:16.331Z,57.5
2018-05-08T03:27:16.596Z,57.8
2018-05-08T03:28:16.858Z,58.2
2018-05-08T03:29:17.138Z,58.2
2018-05-08T03:30:16.412Z,58.4
2018-05-08T03:31:16.468Z,58.6
2018-05-08T03:32:16.732Z,58.6
2018-05-08T03:33:16.992Z,58.5
2018-05-08T03:34:17.254Z,58.6
2018-05-08T03:35:16.510Z,59.5
2018-05-08T03:36:16.774Z,59.6
2018-05-08T03:37:17.047Z,59.4
2018-05-08T03:38:17.310Z,59.0
2018-05-08T03:39:16.579Z,59.5
2018-05-08T03:40:16.855Z,58.7
2018-05-08T03:41:16.892Z,58.6
2018-05-08T03:42:17.162Z,58.7
2018-05-08T03:43:16.425Z,58.7
2018-05-08T03:44:16.698Z,58.7
2018-05-08T03:45:16.962Z,59.5
2018-05-08T03:46:17.219Z,59.5
2018-05-08T03:47:16.484Z,59.6
2018-05-08T03:48:16.738Z,59.9
2018-05-08T03:49:16.995Z,60.0
2018-05-08T03:50:17.282Z,59.4
2018-05-08T03:51:17.290Z,59.7
2018-05-08T03:52:16.549Z,60.1
2018-05-08T03:53:16.815Z,60.4
2018-05-08T03:54:17.080Z,59.7
2018-05-08T03:55:16.355Z,59.5
2018-05-08T03:56:16.622Z,59.4
2018-05-08T03:57:16.956Z,59.3
2018-05-08T03:58:17.231Z,59.4
2018-05-08T03:59:16.487Z,60.2
2018-05-08T04:00:16.764Z,60.0
2018-05-08T04:01:16.796Z,59.9
2018-05-08T04:02:17.060Z,59.8
2018-05-08T04:03:16.336Z,60.3
2018-05-08T04:04:16.603Z,60.0
2018-05-08T04:05:16.870Z,60.3
2018-05-08T04:06:17.135Z,60.2
2018-05-08T04:07:16.396Z,60.4
2018-05-08T04:08:16.802Z,60.2
2018-05-08T04:09:17.073Z,60.9
2018-05-08T04:10:16.339Z,60.1
2018-05-08T04:11:16.381Z,59.8
2018-05-08T04:12:16.642Z,59.5
2018-05-08T04:13:16.900Z,59.4
2018-05-08T04:14:17.352Z,59.6
2018-05-08T04:15:16.621Z,59.7
2018-05-08T04:16:16.884Z,59.8
2018-05-08T04:17:17.149Z,59.9
2018-05-08T04:18:16.426Z,60.0
2018-05-08T04:19:16.688Z,60.2
2018-05-08T04:20:16.966Z,60.1
2018-05-08T04:21:17.001Z,60.2
2018-05-08T04:22:17.282Z,60.4
2018-05-08T04:23:16.543Z,60.2
2018-05-08T04:24:16.806Z,60.3
2018-05-08T04:25:17.080Z,60.5
2018-05-08T04:26:16.365Z,59.8
2018-05-08T04:27:16.704Z,60.1
2018-05-08T04:28:16.976Z,60.0
2018-05-08T04:29:17.237Z,59.0
2018-05-08T04:30:16.505Z,59.2
2018-05-08T04:31:16.546Z,58.8
2018-05-08T04:32:16.808Z,58.7
2018-05-08T04:33:17.075Z,58.7
2018-05-08T04:34:16.345Z,58.6
2018-05-08T04:35:16.605Z,58.5
2018-05-08T04:36:16.877Z,58.8
2018-05-08T04:37:17.135Z,58.8
2018-05-08T04:38:16.407Z,58.3
2018-05-08T04:39:16.668Z,58.1
2018-05-08T04:40:16.938Z,57.6
2018-05-08T04:41:16.982Z,57.3
2018-05-08T04:42:17.258Z,57.0
2018-05-08T04:43:16.523Z,57.2
2018-05-08T04:44:16.781Z,57.7
2018-05-08T04:45:17.043Z,57.2
2018-05-08T04:46:17.303Z,57.0
2018-05-08T04:47:16.737Z,56.8
2018-05-08T04:48:17.316Z,56.6
2018-05-08T04:49:16.574Z,57.2
2018-05-08T04:50:16.842Z,57.3
2018-05-08T04:51:16.874Z,56.5
2018-05-08T04:52:17.132Z,56.8
2018-05-08T04:53:16.393Z,56.9
2018-05-08T04:54:16.656Z,57.0
2018-05-08T04:55:16.918Z,56.9
2018-05-08T04:56:17.193Z,57.0
2018-05-08T04:57:16.450Z,57.3
2018-05-08T04:58:16.719Z,57.1
2018-05-08T04:59:16.979Z,56.6
2018-05-08T05:00:17.253Z,56.8
2018-05-08T05:01:17.305Z,56.5
2018-05-08T05:02:16.565Z,56.6
2018-05-08T05:03:16.824Z,56.3
2018-05-08T05:04:17.095Z,56.2
2018-05-08T05:05:16.682Z,56.8
2018-05-08T05:06:16.946Z,56.5
2018-05-08T05:07:17.212Z,56.2
2018-05-08T05:08:16.475Z,56.4
2018-05-08T05:09:16.737Z,56.5
2018-05-08T05:10:17.012Z,56.5
2018-05-08T05:11:17.048Z,56.5
2018-05-08T05:12:17.377Z,56.3
2018-05-08T05:13:16.643Z,56.5
2018-05-08T05:14:16.905Z,56.3
2018-05-08T05:15:17.175Z,56.0
2018-05-08T05:16:16.453Z,55.2
2018-05-08T05:17:16.713Z,55.2
2018-05-08T05:18:16.976Z,54.1
2018-05-08T05:19:17.230Z,53.7
2018-05-08T05:20:16.496Z,54.5
2018-05-08T05:21:16.534Z,54.8
2018-05-08T05:22:16.800Z,54.5
2018-05-08T05:23:17.071Z,54.5
2018-05-08T05:24:16.341Z,54.3
2018-05-08T05:25:16.609Z,53.6
2018-05-08T05:26:16.875Z,53.8
2018-05-08T05:27:17.136Z,54.0
2018-05-08T05:28:16.398Z,54.1
2018-05-08T05:29:16.654Z,54.0
2018-05-08T05:30:16.928Z,53.8
2018-05-08T05:31:16.975Z,54.5
2018-05-08T05:32:17.233Z,54.4
2018-05-08T05:33:16.498Z,54.4
2018-05-08T05:34:16.769Z,54.7
2018-05-08T05:35:17.050Z,53.8
2018-05-08T05:36:17.323Z,51.8
2018-05-08T05:37:16.589Z,51.0
2018-05-08T05:38:16.853Z,51.7
2018-05-08T05:39:17.119Z,52.2
2018-05-08T05:40:16.393Z,52.1
2018-05-08T05:41:16.448Z,52.0
2018-05-08T05:42:16.713Z,51.6
2018-05-08T05:43:16.976Z,52.0
2018-05-08T05:44:17.240Z,51.1
2018-05-08T05:45:16.508Z,51.5
2018-05-08T05:46:16.775Z,51.8
2018-05-08T05:47:17.040Z,50.7
2018-05-08T05:48:17.296Z,51.1
2018-05-08T05:49:16.564Z,51.7
2018-05-08T05:50:16.830Z,51.3
2018-05-08T05:51:16.883Z,50.8
2018-05-08T05:52:17.140Z,50.3
2018-05-08T05:53:16.536Z,50.5
2018-05-08T05:54:16.886Z,50.8
2018-05-08T05:55:17.150Z,51.1
2018-05-08T05:56:16.405Z,51.7
2018-05-08T05:57:16.672Z,50.6
2018-05-08T05:58:16.926Z,50.5
2018-05-08T05:59:17.185Z,50.4
2018-05-08T06:00:16.474Z,49.9
2018-05-08T06:01:16.494Z,50.8
2018-05-08T06:02:16.749Z,49.5
2018-05-08T06:03:17.010Z,49.6
2018-05-08T06:04:17.268Z,50.0
2018-05-08T06:05:16.539Z,50.2
2018-05-08T06:06:16.799Z,49.8
2018-05-08T06:07:17.055Z,49.5
2018-05-08T06:08:17.314Z,49.8
2018-05-08T06:09:16.575Z,50.1
2018-05-08T06:10:16.846Z,49.7
2018-05-08T06:11:16.884Z,49.8
2018-05-08T06:12:17.142Z,49.7
2018-05-08T06:13:16.409Z,49.1
2018-05-08T06:14:16.674Z,49.4
2018-05-08T06:15:16.930Z,48.8
2018-05-08T06:16:17.221Z,49.2
2018-05-08T06:17:16.564Z,49.0
2018-05-08T06:18:16.830Z,48.2
2018-05-08T06:19:17.087Z,48.9
2018-05-08T06:20:16.506Z,49.1
2018-05-08T06:21:16.410Z,48.5
2018-05-08T06:22:16.673Z,48.3
2018-05-08T06:23:16.931Z,48.5
2018-05-08T06:24:17.199Z,48.1
2018-05-08T06:25:16.471Z,48.2
2018-05-08T06:26:16.738Z,48.1
2018-05-08T06:27:16.990Z,47.9
2018-05-08T06:28:17.253Z,48.0
2018-05-08T06:29:16.533Z,47.6
2018-05-08T06:30:16.809Z,47.5
2018-05-08T06:31:16.865Z,46.6
2018-05-08T06:32:17.133Z,46.9
2018-05-08T06:33:16.391Z,47.0
2018-05-08T06:34:16.648Z,46.8
2018-05-08T06:35:16.918Z,46.2
2018-05-08T06:36:17.185Z,45.8
2018-05-08T06:37:16.454Z,46.0
2018-05-08T06:38:16.717Z,46.1
2018-05-08T06:39:16.980Z,46.1
2018-05-08T06:40:17.251Z,45.9
2018-05-08T06:41:17.283Z,45.2
2018-05-08T06:42:16.543Z,44.6
2018-05-08T06:43:16.804Z,44.9
2018-05-08T06:44:17.146Z,45.0
2018-05-08T06:45:16.428Z,45.0
2018-05-08T06:46:16.688Z,44.0
2018-05-08T06:47:16.950Z,44.2
2018-05-08T06:48:17.208Z,44.2
2018-05-08T06:49:16.482Z,44.9
2018-05-08T06:50:16.770Z,43.8
2018-05-08T06:51:16.799Z,42.5
2018-05-08T06:52:17.061Z,43.6
2018-05-08T06:53:16.334Z,44.0
2018-05-08T06:54:16.599Z,43.0
2018-05-08T06:55:16.873Z,43.2
2018-05-08T06:56:17.276Z,43.6
2018-05-08T06:57:16.550Z,42.7
2018-05-08T06:58:16.830Z,43.0
2018-05-08T06:59:17.124Z,42.9
2018-05-08T07:00:16.407Z,42.3
2018-05-08T07:01:16.459Z,42.8
2018-05-08T07:02:16.741Z,41.6
2018-05-08T07:03:17.015Z,41.3
2018-05-08T07:04:17.396Z,41.7
2018-05-08T07:05:16.668Z,40.8
2018-05-08T07:06:16.947Z,41.0
2018-05-08T07:07:17.238Z,42.0
2018-05-08T07:08:16.524Z,42.0
2018-05-08T07:09:17.078Z,41.2
2018-05-08T07:10:16.451Z,42.2
2018-05-08T07:11:16.500Z,42.0
2018-05-08T07:12:16.786Z,41.8
2018-05-08T07:13:17.084Z,41.1
2018-05-08T07:14:16.370Z,41.4
2018-05-08T07:15:16.670Z,41.2
2018-05-08T07:16:17.600Z,41.6
2018-05-08T07:17:17.119Z,41.1
2018-05-08T07:18:16.406Z,40.8
2018-05-08T07:19:16.675Z,41.1
2018-05-08T07:20:16.979Z,39.6
2018-05-08T07:21:17.006Z,40.5
2018-05-08T07:22:17.277Z,39.7
2018-05-08T07:23:16.563Z,39.0
2018-05-08T07:24:16.848Z,38.8
2018-05-08T07:25:17.124Z,39.6
2018-05-08T07:26:16.410Z,40.0
2018-05-08T07:27:16.972Z,39.3
2018-05-08T07:28:17.494Z,39.0
2018-05-08T07:29:16.757Z,38.5
2018-05-08T07:30:17.043Z,38.6
2018-05-08T07:31:17.100Z,38.0
2018-05-08T07:32:16.363Z,38.6
2018-05-08T07:33:16.638Z,38.2
2018-05-08T07:34:16.976Z,38.4
2018-05-08T07:35:17.270Z,38.2
2018-05-08T07:36:16.549Z,37.9
2018-05-08T07:37:16.836Z,37.0
2018-05-08T07:38:17.313Z,37.3
2018-05-08T07:39:16.695Z,38.4
2018-05-08T07:40:16.991Z,38.9
2018-05-08T07:41:17.024Z,39.3
2018-05-08T07:42:17.318Z,40.0
2018-05-08T07:43:16.584Z,39.1
2018-05-08T07:44:16.884Z,38.7
2018-05-08T07:45:17.165Z,38.6
2018-05-08T07:46:16.456Z,38.7
2018-05-08T07:47:16.737Z,38.1
2018-05-08T07:48:17.025Z,38.9
2018-05-08T07:49:17.322Z,37.2
2018-05-08T07:50:16.599Z,36.7
2018-05-08T07:51:16.656Z,36.6
2018-05-08T07:52:16.933Z,36.3
2018-05-08T07:53:17.209Z,35.0
2018-05-08T07:54:16.489Z,35.4
2018-05-08T07:55:17.054Z,37.7
2018-05-08T07:56:16.330Z,37.1
2018-05-08T07:57:16.638Z,35.8
2018-05-08T07:58:16.920Z,36.2
2018-05-08T07:59:17.237Z,36.5
2018-05-08T08:00:16.540Z,36.8
2018-05-08T08:01:16.573Z,35.8
2018-05-08T08:02:16.856Z,36.0
2018-05-08T08:03:17.301Z,35.7
2018-05-08T08:04:16.593Z,35.5
2018-05-08T08:05:16.879Z,36.5
2018-05-08T08:06:17.152Z,34.9
2018-05-08T08:07:16.416Z,35.0
2018-05-08T08:08:16.703Z,34.0
2018-05-08T08:09:16.993Z,33.5
2018-05-08T08:10:17.269Z,33.7
2018-05-08T08:11:17.331Z,33.5
2018-05-08T08:12:16.688Z,33.7
2018-05-08T08:13:16.984Z,33.2
2018-05-08T08:14:17.277Z,32.9
2018-05-08T08:15:16.577Z,32.4
2018-05-08T08:16:16.848Z,32.2
2018-05-08T08:17:17.129Z,31.3
2018-05-08T08:18:16.486Z,32.6
2018-05-08T08:19:16.793Z,32.1
2018-05-08T08:20:17.090Z,31.9
2018-05-08T08:21:17.122Z,32.1
2018-05-08T08:22:16.408Z,35.2
2018-05-08T08:23:16.695Z,33.7
2018-05-08T08:24:16.982Z,31.6
2018-05-08T08:25:17.261Z,31.6
2018-05-08T08:26:16.557Z,31.4
2018-05-08T08:27:16.866Z,32.5
2018-05-08T08:28:17.171Z,32.0
2018-05-08T08:29:16.461Z,31.4
2018-05-08T08:30:16.752Z,31.4
2018-05-08T08:31:16.779Z,32.8
2018-05-08T08:32:17.069Z,31.6
2018-05-08T08:33:16.328Z,30.6
2018-05-08T08:34:16.606Z,30.4
2018-05-08T08:35:16.898Z,31.8
2018-05-08T08:36:17.184Z,30.4
2018-05-08T08:37:16.482Z,30.4
2018-05-08T08:38:16.785Z,30.3
2018-05-08T08:39:17.083Z,29.9
2018-05-08T08:40:16.393Z,29.7
2018-05-08T08:41:16.425Z,29.0
2018-05-08T08:42:16.707Z,28.3
2018-05-08T08:43:17.007Z,27.9
2018-05-08T08:44:17.297Z,28.5
2018-05-08T08:45:16.580Z,28.4
2018-05-08T08:46:16.861Z,28.4
2018-05-08T08:47:17.141Z,28.2
2018-05-08T08:48:16.425Z,27.4
2018-05-08T08:49:16.703Z,28.3
2018-05-08T08:50:16.992Z,29.4
2018-05-08T08:51:17.049Z,29.1
2018-05-08T08:52:16.339Z,29.1
2018-05-08T08:53:16.600Z,28.3
2018-05-08T08:54:16.889Z,26.8
2018-05-08T08:55:17.172Z,28.3
2018-05-08T08:56:16.464Z,27.0
2018-05-08T08:57:16.750Z,27.1
2018-05-08T08:58:17.021Z,27.6
2018-05-08T08:59:17.302Z,27.0
2018-05-08T09:00:16.622Z,28.0
2018-05-08T09:01:16.633Z,27.5
2018-05-08T09:02:16.916Z,27.3
2018-05-08T09:03:17.196Z,26.6
2018-05-08T09:04:16.460Z,26.6
2018-05-08T09:05:16.751Z,26.9
2018-05-08T09:06:17.029Z,26.7
2018-05-08T09:07:17.459Z,26.5
2018-05-08T09:08:16.753Z,26.5
2018-05-08T09:09:17.038Z,26.2
2018-05-08T09:10:17.342Z,25.9
2018-05-08T09:11:16.436Z,25.9
2018-05-08T09:12:16.803Z,26.6
2018-05-08T09:13:17.074Z,25.9
2018-05-08T09:14:16.344Z,25.8
2018-05-08T09:15:16.600Z,26.0
2018-05-08T09:16:16.880Z,25.2
2018-05-08T09:17:17.171Z,25.6
2018-05-08T09:18:16.444Z,25.2
2018-05-08T09:19:16.727Z,25.2
2018-05-08T09:20:16.997Z,25.5
2018-05-08T09:21:17.049Z,24.6
2018-05-08T09:22:17.342Z,25.2
2018-05-08T09:23:16.654Z,24.6
2018-05-08T09:24:16.936Z,24.9
2018-05-08T09:25:17.237Z,25.2
2018-05-08T09:26:16.518Z,25.1
2018-05-08T09:27:16.806Z,25.1
2018-05-08T09:28:17.086Z,25.6
2018-05-08T09:29:16.368Z,25.4
2018-05-08T09:30:16.637Z,25.5
2018-05-08T09:31:16.693Z,25.4
2018-05-08T09:32:16.982Z,25.0
2018-05-08T09:33:17.283Z,25.4
2018-05-08T09:34:16.571Z,25.2
2018-05-08T09:35:16.843Z,25.1
2018-05-08T09:36:17.124Z,25.5
2018-05-08T09:37:16.417Z,25.6
2018-05-08T09:38:16.762Z,24.7
2018-05-08T09:39:17.053Z,25.4
2018-05-08T09:40:16.358Z,24.9
2018-05-08T09:41:16.415Z,26.3
2018-05-08T09:42:16.715Z,25.4
2018-05-08T09:43:17.003Z,26.9
2018-05-08T09:44:17.281Z,25.4
2018-05-08T09:45:16.557Z,26.3
2018-05-08T09:46:16.838Z,27.1
2018-05-08T09:47:17.127Z,25.6
2018-05-08T09:48:16.526Z,26.1
2018-05-08T09:49:16.830Z,26.1
2018-05-08T09:50:17.124Z,25.8
2018-05-08T09:51:17.171Z,26.5
2018-05-08T09:52:16.466Z,25.8
2018-05-08T09:53:16.756Z,25.8
2018-05-08T09:54:17.267Z,25.5
2018-05-08T09:55:16.658Z,26.1
2018-05-08T09:56:16.948Z,26.6
2018-05-08T09:57:17.226Z,27.4
2018-05-08T09:58:16.505Z,26.5
2018-05-08T09:59:16.791Z,25.9
2018-05-08T10:00:17.090Z,25.8
2018-05-08T10:01:17.125Z,26.2
2018-05-08T10:02:16.429Z,27.0
2018-05-08T10:03:16.706Z,27.2
2018-05-08T10:04:16.989Z,26.9
2018-05-08T10:05:17.299Z,27.1
2018-05-08T10:06:16.594Z,27.6
2018-05-08T10:07:16.877Z,27.6
2018-05-08T10:08:17.497Z,28.0
2018-05-08T10:09:16.781Z,28.0
2018-05-08T10:10:17.040Z,28.0
2018-05-08T10:11:17.127Z,27.6
2018-05-08T10:12:16.404Z,27.6
2018-05-08T10:13:16.685Z,27.5
2018-05-08T10:14:16.970Z,28.3
2018-05-08T10:15:17.245Z,28.4
2018-05-08T10:16:16.528Z,28.3
2018-05-08T10:17:16.814Z,28.4
2018-05-08T10:18:17.109Z,28.8
2018-05-08T10:19:16.393Z,28.4
2018-05-08T10:20:16.682Z,28.6
2018-05-08T10:21:16.724Z,28.7
2018-05-08T10:22:17.023Z,28.6
2018-05-08T10:23:17.350Z,28.7
2018-05-08T10:24:16.611Z,28.1
2018-05-08T10:25:16.885Z,27.5
2018-05-08T10:26:17.162Z,28.8
2018-05-08T10:27:16.441Z,28.2
2018-05-08T10:28:16.717Z,27.9
2018-05-08T10:29:17.019Z,28.5
2018-05-08T10:30:17.328Z,28.5
2018-05-08T10:31:16.361Z,27.0
2018-05-08T10:32:16.631Z,27.8
2018-05-08T10:33:16.910Z,27.7
2018-05-08T10:34:17.184Z,28.9
2018-05-08T10:35:16.461Z,28.4
2018-05-08T10:36:16.739Z,28.5
2018-05-08T10:37:17.017Z,28.6
2018-05-08T10:38:17.277Z,28.9
2018-05-08T10:39:16.563Z,28.8
2018-05-08T10:40:16.864Z,28.3
2018-05-08T10:41:16.872Z,28.9
2018-05-08T10:42:17.133Z,28.6
2018-05-08T10:43:16.405Z,28.8
2018-05-08T10:44:16.704Z,28.9
2018-05-08T10:45:17.005Z,28.7
2018-05-08T10:46:17.286Z,28.1
2018-05-08T10:47:16.561Z,29.0
2018-05-08T10:48:16.854Z,29.0
2018-05-08T10:49:17.141Z,29.2
2018-05-08T10:50:16.431Z,29.2
2018-05-08T10:51:16.459Z,29.8
2018-05-08T10:52:16.746Z,29.9
2018-05-08T10:53:17.022Z,29.6
2018-05-08T10:54:17.328Z,29.4
2018-05-08T10:55:16.608Z,30.2
2018-05-08T10:56:16.881Z,29.5
2018-05-08T10:57:17.146Z,29.5
2018-05-08T10:58:16.439Z,29.1
2018-05-08T10:59:16.734Z,29.3
2018-05-08T11:00:17.040Z,28.9
2018-05-08T11:01:17.063Z,28.8
2018-05-08T11:02:16.345Z,29.4
2018-05-08T11:03:16.626Z,29.3
2018-05-08T11:04:16.907Z,29.8
2018-05-08T11:05:17.182Z,29.7
2018-05-08T11:06:16.452Z,30.5
2018-05-08T11:07:16.811Z,30.6
2018-05-08T11:08:17.094Z,30.8
2018-05-08T11:09:16.380Z,29.5
2018-05-08T11:10:16.679Z,28.7
2018-05-08T11:11:16.796Z,28.7
2018-05-08T11:12:17.075Z,28.6
2018-05-08T11:13:16.352Z,29.0
2018-05-08T11:14:16.646Z,29.1
2018-05-08T11:15:16.940Z,28.2
2018-05-08T11:16:17.220Z,28.1
2018-05-08T11:17:16.504Z,28.8
2018-05-08T11:18:16.781Z,29.4
2018-05-08T11:19:17.076Z,29.5
2018-05-08T11:20:16.367Z,29.0
2018-05-08T11:21:16.415Z,28.9
2018-05-08T11:22:16.703Z,28.9
2018-05-08T11:23:16.996Z,28.6
2018-05-08T11:24:17.279Z,29.4
2018-05-08T11:25:16.573Z,29.8
2018-05-08T11:26:16.850Z,29.1
2018-05-08T11:27:17.115Z,29.3
2018-05-08T11:28:16.399Z,29.2
2018-05-08T11:29:16.668Z,29.2
2018-05-08T11:30:16.964Z,29.2
2018-05-08T11:31:16.976Z,29.5
2018-05-08T11:32:17.235Z,29.7
2018-05-08T11:33:16.499Z,29.8
2018-05-08T11:34:16.771Z,28.9
2018-05-08T11:35:17.074Z,29.1
2018-05-08T11:36:16.344Z,29.4
2018-05-08T11:37:16.623Z,29.7
2018-05-08T11:38:16.903Z,29.5
2018-05-08T11:39:17.373Z,28.9
2018-05-08T11:40:16.679Z,28.9
2018-05-08T11:41:16.718Z,29.1
2018-05-08T11:42:16.995Z,29.6
2018-05-08T11:43:17.283Z,29.7
2018-05-08T11:44:16.561Z,29.6
2018-05-08T11:45:16.819Z,29.6
2018-05-08T11:46:17.100Z,29.6
2018-05-08T11:47:16.365Z,29.7
2018-05-08T11:48:16.636Z,30.3
2018-05-08T11:49:16.921Z,30.1
2018-05-08T11:50:17.223Z,30.1
2018-05-08T11:51:17.245Z,29.9
2018-05-08T11:52:16.568Z,30.1
2018-05-08T11:53:16.859Z,31.2
2018-05-08T11:54:17.155Z,31.1
2018-05-08T11:55:16.447Z,30.7
2018-05-08T11:56:16.733Z,31.0
2018-05-08T11:57:17.026Z,31.1
2018-05-08T11:58:17.322Z,30.9
2018-05-08T11:59:16.601Z,31.5
2018-05-08T12:00:16.910Z,31.1
2018-05-08T12:01:16.946Z,30.8
2018-05-08T12:02:17.225Z,31.2
2018-05-08T12:03:16.500Z,31.4
2018-05-08T12:04:16.781Z,30.6
2018-05-08T12:05:17.081Z,31.5
2018-05-08T12:06:16.358Z,32.3
2018-05-08T12:07:16.625Z,31.8
2018-05-08T12:08:16.908Z,30.9
2018-05-08T12:09:17.496Z,31.3
2018-05-08T12:10:16.858Z,30.6
2018-05-08T12:11:16.938Z,30.1
2018-05-08T12:12:17.218Z,30.9
2018-05-08T12:13:16.491Z,30.2
2018-05-08T12:14:16.777Z,29.9
2018-05-08T12:15:17.071Z,30.2
2018-05-08T12:16:16.381Z,29.8
2018-05-08T12:17:16.665Z,30.4
2018-05-08T12:18:16.940Z,30.4
2018-05-08T12:19:17.204Z,30.8
2018-05-08T12:20:16.501Z,31.0
2018-05-08T12:21:16.520Z,30.9
2018-05-08T12:22:16.792Z,30.9
2018-05-08T12:23:17.092Z,31.0
2018-05-08T12:24:16.381Z,31.0
2018-05-08T12:25:16.674Z,31.2
2018-05-08T12:26:16.977Z,31.3
2018-05-08T12:27:17.271Z,31.4
2018-05-08T12:28:16.548Z,31.9
2018-05-08T12:29:16.824Z,32.1
2018-05-08T12:30:17.136Z,32.1
2018-05-08T12:31:17.148Z,32.0
2018-05-08T12:32:16.418Z,32.2
2018-05-08T12:33:16.703Z,31.9
2018-05-08T12:34:16.995Z,30.9
2018-05-08T12:35:17.295Z,30.9
2018-05-08T12:36:16.803Z,30.8
2018-05-08T12:37:17.072Z,31.6
2018-05-08T12:38:16.358Z,31.6
2018-05-08T12:39:16.706Z,30.9
2018-05-08T12:40:16.985Z,31.1
2018-05-08T12:41:17.042Z,30.4
2018-05-08T12:42:17.335Z,30.9
2018-05-08T12:43:16.623Z,31.3
2018-05-08T12:44:16.909Z,31.6
2018-05-08T12:45:17.187Z,32.0
2018-05-08T12:46:16.490Z,32.4
2018-05-08T12:47:16.777Z,32.2
2018-05-08T12:48:17.063Z,31.6
2018-05-08T12:49:16.331Z,31.8
2018-05-08T12:50:16.613Z,32.2
2018-05-08T12:51:16.663Z,32.0
2018-05-08T12:52:16.961Z,31.3
2018-05-08T12:53:17.262Z,31.1
2018-05-08T12:54:16.557Z,31.1
2018-05-08T12:55:16.825Z,31.1
2018-05-08T12:56:17.115Z,31.8
2018-05-08T12:57:16.398Z,31.9
2018-05-08T12:58:16.690Z,30.8
2018-05-08T12:59:16.969Z,31.8
2018-05-08T13:00:17.246Z,31.8
2018-05-08T13:01:17.304Z,32.2
2018-05-08T13:02:16.582Z,32.6
2018-05-08T13:03:16.872Z,31.4
2018-05-08T13:04:17.158Z,31.9
2018-05-08T13:05:16.586Z,31.1
2018-05-08T13:06:16.888Z,30.9
2018-05-08T13:07:17.480Z,30.8
2018-05-08T13:08:16.778Z,31.3
2018-05-08T13:09:17.064Z,31.4
2018-05-08T13:10:16.360Z,31.4
2018-05-08T13:11:16.399Z,31.4
2018-05-08T13:12:16.694Z,31.4
2018-05-08T13:13:16.999Z,31.6
2018-05-08T13:14:17.309Z,32.1
2018-05-08T13:15:16.593Z,31.9
2018-05-08T13:16:16.879Z,32.1
2018-05-08T13:17:17.159Z,31.4
2018-05-08T13:18:16.588Z,31.3